Time;durP1;ratioP1;P1;durP2;ratioP2;P2;SDS_P1;SDS_P2;PMS_P1;PMS_P2;Temp;Humidity;BMP_temperature;BMP_pressure;BME280_temperature;BME280_humidity;BME280_pressure;Samples;Min_cycle;Max_cycle;Signal;HPM_P1;HPM_P2
2021/07/22 00:01:32;;;;;;;20.60;16.88;;;21.30;99.90;;;;;;5040729;28;20083;-70
2021/07/22 00:03:57;;;;;;;20.30;17.90;;;21.20;99.90;;;;;;5042656;28;20022;-70
2021/07/22 00:06:23;;;;;;;20.27;15.48;;;21.20;99.90;;;;;;5039106;28;20508;-70
2021/07/22 00:08:48;;;;;;;22.35;17.15;;;21.10;99.90;;;;;;5042454;28;20021;-70
2021/07/22 00:11:14;;;;;;;25.42;18.38;;;21.10;99.90;;;;;;5036508;28;20034;-70
2021/07/22 00:13:40;;;;;;;21.23;16.35;;;21.10;99.90;;;;;;5040320;28;20424;-70
2021/07/22 00:16:05;;;;;;;22.50;16.27;;;21.10;99.90;;;;;;5038448;28;20030;-70
2021/07/22 00:18:33;;;;;;;22.98;18.50;;;21.00;99.90;;;;;;5039774;28;20108;-70
2021/07/22 00:20:59;;;;;;;24.63;17.00;;;21.00;99.90;;;;;;5046805;28;20024;-72
2021/07/22 00:23:25;;;;;;;19.20;15.80;;;21.00;99.90;;;;;;5040482;28;20024;-71
2021/07/22 00:25:51;;;;;;;26.25;18.42;;;20.90;99.90;;;;;;5041849;28;20482;-71
2021/07/22 00:28:16;;;;;;;23.35;18.10;;;20.90;99.90;;;;;;5036657;28;20063;-72
2021/07/22 00:30:42;;;;;;;22.75;17.77;;;20.80;99.90;;;;;;5040373;28;20078;-69
2021/07/22 00:33:08;;;;;;;23.80;18.88;;;20.80;99.90;;;;;;5048191;28;20037;-70
2021/07/22 00:35:33;;;;;;;20.95;17.20;;;20.80;99.90;;;;;;5044359;28;20021;-70
2021/07/22 00:37:59;;;;;;;25.15;17.52;;;20.80;99.90;;;;;;5040964;28;20551;-71
2021/07/22 00:40:24;;;;;;;21.90;15.50;;;20.70;99.90;;;;;;5041466;28;20017;-71
2021/07/22 00:43:00;;;;;;;23.45;17.65;;;20.70;99.90;;;;;;5048852;28;20029;-71
2021/07/22 00:45:27;;;;;;;21.15;16.70;;;20.70;99.90;;;;;;5036461;28;20049;-71
2021/07/22 00:47:53;;;;;;;23.73;18.25;;;20.70;99.90;;;;;;5044742;28;20495;-71
2021/07/22 00:50:19;;;;;;;18.58;15.30;;;20.70;99.90;;;;;;5039392;28;20029;-71
2021/07/22 00:52:45;;;;;;;19.65;16.23;;;20.60;99.90;;;;;;5043537;28;20105;-71
2021/07/22 00:55:13;;;;;;;20.90;16.92;;;20.60;99.90;;;;;;5041682;28;20123;-71
2021/07/22 00:57:39;;;;;;;24.27;17.40;;;20.60;99.90;;;;;;5046801;28;20049;-71
2021/07/22 01:00:06;;;;;;;21.70;16.80;;;20.60;99.90;;;;;;5045212;28;20465;-71
2021/07/22 01:02:31;;;;;;;20.83;17.10;;;20.60;99.90;;;;;;5048674;28;20096;-70
2021/07/22 01:04:57;;;;;;;25.40;18.80;;;20.60;99.90;;;;;;5043943;28;20084;-71
2021/07/22 01:07:23;;;;;;;24.10;19.38;;;20.60;99.90;;;;;;5039417;28;20034;-71
2021/07/22 01:09:49;;;;;;;24.45;19.55;;;20.60;99.90;;;;;;5042859;28;20148;-70
2021/07/22 01:12:15;;;;;;;24.35;20.42;;;20.50;99.90;;;;;;5039252;28;20504;-70
2021/07/22 01:14:43;;;;;;;27.95;19.40;;;20.50;99.90;;;;;;5043194;28;20021;-70
2021/07/22 01:17:33;;;;;;;26.40;21.35;;;20.50;99.90;;;;;;5037813;28;20104;-70
2021/07/22 01:20:01;;;;;;;23.38;20.15;;;20.40;99.90;;;;;;5047562;28;20473;-71
2021/07/22 01:22:27;;;;;;;26.52;20.38;;;20.40;99.90;;;;;;5041243;28;20037;-70
2021/07/22 01:24:53;;;;;;;27.40;20.58;;;20.40;99.90;;;;;;5042337;28;20075;-70
2021/07/22 01:27:19;;;;;;;28.10;19.15;;;20.40;99.90;;;;;;5044391;28;20057;-70
2021/07/22 01:29:44;;;;;;;22.27;17.35;;;20.30;99.90;;;;;;5041884;28;20025;-70
2021/07/22 01:32:10;;;;;;;24.08;18.73;;;20.30;99.90;;;;;;5043674;28;20029;-70
2021/07/22 01:34:36;;;;;;;24.13;18.77;;;20.30;99.90;;;;;;5054888;28;20051;-70
2021/07/22 01:37:01;;;;;;;26.13;19.48;;;20.30;99.90;;;;;;5043261;28;20092;-70
2021/07/22 01:39:29;;;;;;;23.83;18.45;;;20.20;99.90;;;;;;5056931;28;20099;-70
2021/07/22 01:41:54;;;;;;;26.23;20.70;;;20.20;99.90;;;;;;5055827;28;20017;-70
2021/07/22 01:44:20;;;;;;;24.75;20.15;;;20.20;99.90;;;;;;5047170;28;20034;-70
2021/07/22 01:46:46;;;;;;;25.80;21.33;;;20.20;99.90;;;;;;5052411;28;20075;-70
2021/07/22 01:49:11;;;;;;;29.20;22.50;;;20.20;99.90;;;;;;5062530;28;20027;-71
2021/07/22 01:51:37;;;;;;;29.45;23.15;;;20.20;99.90;;;;;;5047529;28;20052;-70
2021/07/22 01:54:02;;;;;;;25.40;20.17;;;20.10;99.90;;;;;;5057991;28;20021;-70
2021/07/22 01:56:28;;;;;;;22.65;19.40;;;20.10;99.90;;;;;;5064818;28;20031;-70
2021/07/22 01:58:54;;;;;;;24.80;19.70;;;20.10;99.90;;;;;;5047279;28;20112;-70
2021/07/22 02:01:19;;;;;;;27.77;21.35;;;20.10;99.90;;;;;;5053495;28;20032;-71
2021/07/22 02:03:45;;;;;;;25.13;20.70;;;20.00;99.90;;;;;;5060607;28;20021;-71
2021/07/22 02:06:12;;;;;;;27.67;21.13;;;20.00;99.90;;;;;;5057260;28;20039;-70
2021/07/22 02:08:37;;;;;;;26.02;20.33;;;20.00;99.90;;;;;;5050301;28;20083;-71
2021/07/22 02:11:04;;;;;;;30.05;23.20;;;20.00;99.90;;;;;;5049035;28;20045;-70
2021/07/22 02:13:30;;;;;;;27.60;22.08;;;19.90;99.90;;;;;;5057600;28;20104;-71
2021/07/22 02:15:56;;;;;;;26.55;20.95;;;19.90;99.90;;;;;;5058201;28;20028;-70
2021/07/22 02:18:22;;;;;;;28.70;23.20;;;19.90;99.90;;;;;;5053579;28;20025;-71
2021/07/22 02:20:48;;;;;;;33.05;23.85;;;19.90;99.90;;;;;;5067126;28;20027;-70
2021/07/22 02:23:14;;;;;;;29.65;24.60;;;19.90;99.90;;;;;;5059132;28;20075;-70
2021/07/22 02:25:39;;;;;;;25.70;21.48;;;19.90;99.90;;;;;;5060696;28;20041;-70
2021/07/22 02:28:05;;;;;;;24.33;20.85;;;19.80;99.90;;;;;;5054339;28;20024;-70
2021/07/22 02:30:31;;;;;;;28.27;21.35;;;19.80;99.90;;;;;;5048856;28;20770;-71
2021/07/22 02:32:57;;;;;;;26.25;20.17;;;19.80;99.90;;;;;;5053113;28;20452;-70
2021/07/22 02:35:22;;;;;;;27.20;22.92;;;19.70;99.90;;;;;;5056970;28;20036;-70
2021/07/22 02:37:48;;;;;;;25.90;22.77;;;19.70;99.90;;;;;;5061391;28;20027;-70
2021/07/22 02:40:14;;;;;;;31.40;23.13;;;19.70;99.90;;;;;;5055530;28;20028;-70
2021/07/22 02:42:40;;;;;;;28.25;23.27;;;19.70;99.90;;;;;;5060538;28;20103;-70
2021/07/22 02:45:06;;;;;;;31.33;25.65;;;19.70;99.90;;;;;;5044312;28;20112;-70
2021/07/22 02:47:32;;;;;;;27.83;22.77;;;19.70;99.90;;;;;;5052992;28;20064;-70
2021/07/22 02:49:58;;;;;;;29.42;22.60;;;19.70;99.90;;;;;;5057045;28;20055;-70
2021/07/22 02:52:24;;;;;;;31.60;23.42;;;19.70;99.90;;;;;;5059515;28;20040;-70
2021/07/22 02:54:50;;;;;;;30.67;25.88;;;19.70;99.90;;;;;;5050006;28;20401;-70
2021/07/22 02:57:15;;;;;;;29.90;23.48;;;19.60;99.90;;;;;;5059714;28;20083;-70
2021/07/22 02:59:41;;;;;;;32.05;25.13;;;19.60;99.90;;;;;;5052900;28;20461;-70
2021/07/22 03:02:07;;;;;;;31.98;24.95;;;19.60;99.90;;;;;;5044669;28;20044;-70
2021/07/22 03:04:32;;;;;;;31.55;24.05;;;19.60;99.90;;;;;;5055990;28;20464;-70
2021/07/22 03:06:58;;;;;;;31.88;23.75;;;19.60;99.90;;;;;;5057095;28;20429;-70
2021/07/22 03:09:24;;;;;;;31.05;24.65;;;19.50;99.90;;;;;;5049606;28;20464;-70
2021/07/22 03:11:50;;;;;;;32.53;24.77;;;19.50;99.90;;;;;;5054954;28;20027;-70
2021/07/22 03:14:15;;;;;;;33.15;27.65;;;19.50;99.90;;;;;;5053253;28;20033;-70
2021/07/22 03:16:41;;;;;;;35.10;29.38;;;19.50;99.90;;;;;;5047797;28;20499;-70
2021/07/22 03:19:06;;;;;;;33.30;26.80;;;19.40;99.90;;;;;;5059126;28;20025;-70
2021/07/22 03:21:32;;;;;;;37.17;27.90;;;19.40;99.90;;;;;;5056124;28;20020;-70
2021/07/22 03:23:58;;;;;;;37.15;28.20;;;19.40;99.90;;;;;;5052584;28;20037;-70
2021/07/22 03:26:23;;;;;;;37.95;27.10;;;19.40;99.90;;;;;;5057050;28;20044;-71
2021/07/22 03:28:49;;;;;;;33.60;26.13;;;19.40;99.90;;;;;;5064917;28;20107;-70
2021/07/22 03:31:14;;;;;;;33.60;26.15;;;19.40;99.90;;;;;;5045487;28;20029;-70
2021/07/22 03:33:40;;;;;;;38.30;25.77;;;19.40;99.90;;;;;;5055175;28;20413;-70
2021/07/22 03:36:06;;;;;;;33.65;26.73;;;19.40;99.90;;;;;;5060635;28;20017;-70
2021/07/22 03:38:32;;;;;;;37.97;29.05;;;19.30;99.90;;;;;;5053968;28;20032;-70
2021/07/22 03:40:57;;;;;;;35.55;26.13;;;19.30;99.90;;;;;;5046216;28;20079;-70
2021/07/22 03:43:23;;;;;;;33.30;26.65;;;19.30;99.90;;;;;;5051664;28;20021;-71
2021/07/22 03:45:57;;;;;;;34.80;26.15;;;19.30;99.90;;;;;;5061257;28;20038;-70
2021/07/22 03:48:22;;;;;;;35.25;27.35;;;19.30;99.90;;;;;;5057763;28;20024;-70
2021/07/22 03:50:51;;;;;;;34.53;26.02;;;19.30;99.90;;;;;;5054871;28;20491;-70
2021/07/22 03:53:17;;;;;;;33.75;26.77;;;19.30;99.90;;;;;;5053935;28;20036;-70
2021/07/22 03:55:42;;;;;;;32.92;26.48;;;19.30;99.90;;;;;;5054839;28;20036;-70
2021/07/22 03:58:08;;;;;;;32.53;26.10;;;19.30;99.90;;;;;;5046278;28;20021;-70
2021/07/22 04:00:34;;;;;;;31.27;25.83;;;19.30;99.90;;;;;;5060890;28;20031;-70
2021/07/22 04:03:01;;;;;;;30.80;25.42;;;19.30;99.90;;;;;;5049971;28;20484;-70
2021/07/22 04:05:27;;;;;;;29.35;23.55;;;19.30;99.90;;;;;;5054155;28;20021;-70
2021/07/22 04:07:57;;;;;;;29.58;22.67;;;19.30;99.90;;;;;;5047442;28;20074;-70
2021/07/22 04:10:27;;;;;;;30.05;23.05;;;19.30;99.90;;;;;;5062733;28;20020;-70
2021/07/22 04:13:02;;;;;;;30.70;24.17;;;19.30;99.90;;;;;;5053371;28;20469;-70
2021/07/22 04:15:29;;;;;;;27.25;22.98;;;19.20;99.90;;;;;;5058434;28;20036;-70
2021/07/22 04:17:56;;;;;;;31.00;24.60;;;19.30;99.90;;;;;;5054837;28;20017;-70
2021/07/22 04:20:23;;;;;;;29.27;22.42;;;19.30;99.90;;;;;;5058967;28;20079;-70
2021/07/22 04:22:50;;;;;;;30.35;24.17;;;19.30;99.90;;;;;;5050849;28;20381;-70
2021/07/22 04:25:16;;;;;;;28.90;22.95;;;19.30;99.90;;;;;;5058476;28;20029;-70
2021/07/22 04:27:42;;;;;;;31.63;23.98;;;19.30;99.90;;;;;;5056702;28;20040;-70
2021/07/22 04:30:09;;;;;;;29.65;25.08;;;19.30;99.90;;;;;;5050000;28;20021;-70
2021/07/22 04:32:35;;;;;;;28.73;23.50;;;19.30;99.90;;;;;;5050200;28;20032;-70
2021/07/22 04:35:01;;;;;;;28.15;23.92;;;19.30;99.90;;;;;;5059206;28;20465;-70
2021/07/22 04:37:27;;;;;;;29.92;23.23;;;19.30;99.90;;;;;;5053274;28;20100;-70
2021/07/22 04:39:52;;;;;;;30.40;22.95;;;19.30;99.90;;;;;;5055543;28;20092;-71
2021/07/22 04:42:18;;;;;;;28.02;22.73;;;19.30;99.90;;;;;;5064114;28;20080;-70
2021/07/22 04:44:44;;;;;;;29.63;24.02;;;19.30;99.90;;;;;;5051654;28;20032;-70
2021/07/22 04:47:09;;;;;;;34.63;24.50;;;19.30;99.90;;;;;;5053543;28;20649;-70
2021/07/22 04:49:35;;;;;;;34.20;26.95;;;19.40;99.90;;;;;;5056178;28;20038;-70
2021/07/22 04:52:01;;;;;;;34.25;24.30;;;19.30;99.90;;;;;;5053008;28;20116;-70
2021/07/22 04:54:26;;;;;;;39.13;28.17;;;19.30;99.90;;;;;;5057901;28;20048;-70
2021/07/22 04:56:52;;;;;;;39.50;28.52;;;19.30;99.90;;;;;;5060494;28;20014;-70
2021/07/22 04:59:18;;;;;;;41.42;29.95;;;19.30;99.90;;;;;;5053387;28;20056;-70
2021/07/22 05:01:43;;;;;;;36.85;27.27;;;19.30;99.90;;;;;;5057837;28;20043;-71
2021/07/22 05:04:15;;;;;;;40.78;28.00;;;19.30;99.90;;;;;;5054511;28;20527;-70
2021/07/22 05:06:41;;;;;;;42.20;27.20;;;19.30;99.90;;;;;;5050633;28;20036;-72
2021/07/22 05:09:06;;;;;;;41.90;27.90;;;19.30;99.90;;;;;;5044778;28;20013;-70
2021/07/22 05:11:32;;;;;;;37.60;28.08;;;19.40;99.90;;;;;;5058128;28;20025;-72
2021/07/22 05:13:57;;;;;;;45.25;31.73;;;19.40;99.90;;;;;;5060111;28;20488;-71
2021/07/22 05:16:23;;;;;;;41.33;29.52;;;19.30;99.90;;;;;;5044246;28;20081;-72
2021/07/22 05:18:51;;;;;;;40.30;28.92;;;19.30;99.90;;;;;;5056378;28;20052;-72
2021/07/22 05:21:17;;;;;;;48.20;30.13;;;19.40;99.90;;;;;;5054799;28;20040;-72
2021/07/22 05:23:42;;;;;;;43.83;28.35;;;19.40;99.90;;;;;;5052633;28;20386;-71
2021/07/22 05:26:10;;;;;;;51.17;34.13;;;19.40;99.90;;;;;;5063113;28;20032;-72
2021/07/22 05:28:39;;;;;;;49.40;31.88;;;19.50;99.90;;;;;;5053851;28;20032;-72
2021/07/22 05:31:10;;;;;;;47.30;31.45;;;19.50;99.90;;;;;;5056388;28;20025;-71
2021/07/22 05:33:36;;;;;;;49.90;33.35;;;19.50;99.90;;;;;;5067128;28;20029;-71
2021/07/22 05:36:04;;;;;;;48.78;32.17;;;19.50;99.90;;;;;;5056653;28;20077;-72
2021/07/22 05:38:34;;;;;;;42.53;31.52;;;19.50;99.90;;;;;;5052304;28;20022;-70
2021/07/22 05:41:00;;;;;;;43.10;31.98;;;19.60;99.90;;;;;;5054029;28;20021;-71
2021/07/22 05:43:27;;;;;;;49.10;32.85;;;19.60;99.90;;;;;;5053224;28;20021;-72
2021/07/22 05:45:54;;;;;;;56.78;35.55;;;19.60;99.90;;;;;;5057356;28;20056;-71
2021/07/22 05:48:19;;;;;;;48.80;33.33;;;19.60;99.90;;;;;;5066847;28;20020;-71
2021/07/22 05:50:46;;;;;;;52.92;34.85;;;19.60;99.90;;;;;;5056562;28;20021;-70
2021/07/22 05:53:12;;;;;;;55.10;35.35;;;19.70;99.90;;;;;;5046649;28;20028;-70
2021/07/22 05:55:37;;;;;;;53.85;34.85;;;19.70;99.90;;;;;;5057680;28;20031;-70
2021/07/22 05:58:03;;;;;;;46.72;32.85;;;19.80;99.90;;;;;;5054939;28;20039;-70
2021/07/22 06:00:29;;;;;;;57.20;37.65;;;19.80;99.90;;;;;;5038763;28;20118;-72
2021/07/22 06:02:54;;;;;;;49.60;33.05;;;19.90;99.90;;;;;;5048169;28;20052;-70
2021/07/22 06:05:20;;;;;;;52.58;34.22;;;19.90;99.90;;;;;;5065463;28;20519;-70
2021/07/22 06:07:46;;;;;;;51.55;35.28;;;20.00;99.90;;;;;;5055347;28;20039;-70
2021/07/22 06:10:13;;;;;;;50.47;32.72;;;20.00;99.90;;;;;;5051555;28;20025;-70
2021/07/22 06:12:40;;;;;;;57.35;35.92;;;20.00;99.90;;;;;;5064061;28;20527;-70
2021/07/22 06:15:06;;;;;;;57.83;35.42;;;20.10;99.90;;;;;;5056497;28;20045;-70
2021/07/22 06:17:34;;;;;;;58.42;38.92;;;20.00;99.90;;;;;;5046684;28;20017;-70
2021/07/22 06:20:00;;;;;;;63.42;37.88;;;20.00;99.90;;;;;;5053953;28;20023;-70
2021/07/22 06:22:26;;;;;;;57.03;36.67;;;20.10;99.90;;;;;;5052799;28;20029;-71
2021/07/22 06:24:52;;;;;;;56.78;37.47;;;20.10;99.90;;;;;;5052916;28;20028;-70
2021/07/22 06:27:17;;;;;;;60.83;38.55;;;20.10;99.90;;;;;;5057123;28;20587;-70
2021/07/22 06:29:43;;;;;;;56.40;34.83;;;20.20;99.90;;;;;;5058505;28;20032;-70
2021/07/22 06:32:09;;;;;;;59.53;35.90;;;20.20;99.90;;;;;;5057753;28;20090;-69
2021/07/22 06:34:34;;;;;;;65.47;37.47;;;20.10;99.90;;;;;;5061502;28;20389;-70
2021/07/22 06:37:00;;;;;;;55.58;36.10;;;20.20;99.90;;;;;;5042816;28;20461;-70
2021/07/22 06:39:25;;;;;;;61.28;38.80;;;20.20;99.90;;;;;;5049926;28;20029;-69
2021/07/22 06:41:57;;;;;;;58.58;35.88;;;20.30;99.90;;;;;;5041502;28;20017;-70
2021/07/22 06:44:23;;;;;;;57.47;35.10;;;20.40;99.90;;;;;;5060666;28;20033;-71
2021/07/22 06:46:48;;;;;;;55.58;37.03;;;20.40;99.90;;;;;;5050751;28;20103;-69
2021/07/22 06:49:14;;;;;;;52.33;34.97;;;20.40;99.90;;;;;;5053862;28;20036;-71
2021/07/22 06:51:40;;;;;;;53.72;34.03;;;20.50;99.90;;;;;;5049365;28;20025;-70
2021/07/22 06:54:08;;;;;;;46.70;31.25;;;20.50;99.90;;;;;;5060124;28;20024;-70
2021/07/22 06:56:34;;;;;;;43.60;29.85;;;20.50;99.90;;;;;;5059347;28;20032;-70
2021/07/22 06:59:00;;;;;;;42.13;28.85;;;20.60;99.90;;;;;;5066706;28;20021;-69
2021/07/22 07:01:25;;;;;;;45.20;28.05;;;20.60;99.90;;;;;;5059323;28;20044;-70
2021/07/22 07:03:51;;;;;;;53.72;30.42;;;20.70;99.90;;;;;;5051551;28;20059;-69
2021/07/22 07:06:16;;;;;;;46.40;28.17;;;20.80;99.90;;;;;;5053876;28;20029;-69
2021/07/22 07:08:42;;;;;;;45.83;27.70;;;20.90;99.90;;;;;;5062801;28;20456;-69
2021/07/22 07:11:08;;;;;;;39.55;26.33;;;21.00;99.90;;;;;;5042494;28;20029;-69
2021/07/22 07:13:34;;;;;;;36.65;24.83;;;21.10;99.90;;;;;;5046364;28;20048;-69
2021/07/22 07:16:06;;;;;;;37.80;22.35;;;21.10;99.90;;;;;;5056596;28;20028;-69
2021/07/22 07:18:32;;;;;;;32.70;22.42;;;21.20;99.90;;;;;;5061887;28;20071;-69
2021/07/22 07:21:01;;;;;;;35.55;22.15;;;21.30;99.90;;;;;;5057778;28;20024;-69
2021/07/22 07:23:27;;;;;;;31.70;21.17;;;21.40;99.90;;;;;;5028819;28;20056;-69
2021/07/22 07:25:52;;;;;;;35.13;21.58;;;21.50;99.90;;;;;;5043798;28;20072;-69
2021/07/22 07:28:18;;;;;;;31.75;20.98;;;21.50;99.90;;;;;;5044038;28;20143;-69
2021/07/22 07:30:44;;;;;;;35.10;21.00;;;21.60;99.90;;;;;;5050836;28;20055;-69
2021/07/22 07:33:09;;;;;;;31.40;19.85;;;21.70;99.90;;;;;;5051720;28;20357;-69
2021/07/22 07:35:35;;;;;;;29.83;18.20;;;21.80;99.90;;;;;;5044505;28;20056;-70
2021/07/22 07:38:02;;;;;;;30.73;19.88;;;21.90;99.90;;;;;;5050541;28;20385;-69
2021/07/22 07:40:27;;;;;;;32.08;19.73;;;22.00;99.90;;;;;;5050546;28;20025;-69
2021/07/22 07:42:53;;;;;;;30.50;18.85;;;22.00;99.90;;;;;;5057932;28;20767;-69
2021/07/22 07:45:19;;;;;;;29.67;20.60;;;22.10;99.90;;;;;;5057852;28;20060;-70
2021/07/22 07:47:47;;;;;;;30.42;19.90;;;22.20;99.90;;;;;;5053740;28;20547;-70
2021/07/22 07:50:13;;;;;;;31.08;19.60;;;22.30;99.90;;;;;;5053999;28;20021;-69
2021/07/22 07:52:39;;;;;;;31.00;20.83;;;22.30;99.90;;;;;;5044938;28;20029;-69
2021/07/22 07:55:07;;;;;;;30.02;19.38;;;22.50;99.90;;;;;;5059858;28;20025;-70
2021/07/22 07:57:33;;;;;;;29.63;18.65;;;22.50;99.90;;;;;;5049450;28;20107;-69
2021/07/22 07:59:59;;;;;;;32.03;20.77;;;22.60;99.90;;;;;;5050147;28;20564;-69
2021/07/22 08:02:24;;;;;;;30.95;20.02;;;22.60;99.90;;;;;;5051679;28;20025;-70
2021/07/22 08:04:50;;;;;;;28.92;18.40;;;22.60;99.90;;;;;;5052282;28;20071;-69
2021/07/22 08:07:15;;;;;;;30.75;18.92;;;22.70;99.90;;;;;;5057342;28;20029;-69
2021/07/22 08:09:41;;;;;;;26.02;16.48;;;22.80;99.90;;;;;;5053946;28;20032;-70
2021/07/22 08:12:07;;;;;;;26.08;16.73;;;22.90;99.90;;;;;;5049149;28;20108;-69
2021/07/22 08:14:37;;;;;;;27.30;17.20;;;22.80;99.90;;;;;;5060181;28;20071;-69
2021/07/22 08:17:06;;;;;;;25.15;17.27;;;22.80;99.90;;;;;;5057687;28;20543;-70
2021/07/22 08:19:32;;;;;;;26.67;17.13;;;22.80;99.90;;;;;;5057000;28;20029;-69
2021/07/22 08:21:58;;;;;;;26.55;17.38;;;23.00;99.90;;;;;;5053088;28;20656;-70
2021/07/22 08:24:24;;;;;;;27.90;19.05;;;23.00;99.90;;;;;;5051498;28;20374;-70
2021/07/22 08:26:50;;;;;;;33.38;21.45;;;23.10;99.90;;;;;;5054894;28;20040;-70
2021/07/22 08:29:16;;;;;;;30.95;18.67;;;23.20;99.90;;;;;;5053728;28;20244;-69
2021/07/22 08:31:41;;;;;;;27.23;18.15;;;23.30;99.90;;;;;;5053166;28;20024;-69
2021/07/22 08:34:07;;;;;;;32.35;21.00;;;23.40;99.90;;;;;;5045840;28;20111;-69
2021/07/22 08:36:33;;;;;;;28.88;19.75;;;23.40;99.90;;;;;;5059725;28;20091;-69
2021/07/22 08:38:58;;;;;;;30.52;19.15;;;23.60;99.90;;;;;;5056776;28;20401;-69
2021/07/22 08:41:24;;;;;;;28.25;19.92;;;23.50;99.90;;;;;;5056000;28;20393;-70
2021/07/22 08:43:51;;;;;;;32.38;19.50;;;23.70;99.90;;;;;;5057243;28;20044;-70
2021/07/22 08:46:18;;;;;;;26.67;17.77;;;23.70;99.90;;;;;;5058667;28;20392;-69
2021/07/22 08:48:44;;;;;;;29.75;18.42;;;23.90;99.90;;;;;;5051248;28;20037;-69
2021/07/22 08:51:10;;;;;;;29.25;16.77;;;24.00;99.90;;;;;;5054040;28;20025;-70
2021/07/22 08:53:36;;;;;;;28.35;16.75;;;24.00;99.90;;;;;;5052898;28;20536;-69
2021/07/22 08:56:06;;;;;;;26.48;16.98;;;24.00;99.90;;;;;;5051615;28;20033;-69
2021/07/22 08:58:32;;;;;;;23.27;16.75;;;24.20;99.90;;;;;;5054491;28;20028;-69
2021/07/22 09:01:00;;;;;;;24.73;16.42;;;24.30;99.90;;;;;;5047096;28;20074;-69
2021/07/22 09:03:26;;;;;;;20.27;14.57;;;24.40;99.90;;;;;;5046632;28;20050;-69
2021/07/22 09:05:52;;;;;;;21.90;14.82;;;24.40;99.90;;;;;;5049532;28;20056;-69
2021/07/22 09:08:17;;;;;;;21.85;15.57;;;24.40;99.90;;;;;;5046173;28;20021;-69
2021/07/22 09:11:03;;;;;;;22.67;14.10;;;24.60;99.90;;;;;;5048384;28;20046;-70
2021/07/22 09:13:29;;;;;;;18.23;13.85;;;24.60;99.90;;;;;;5055561;28;20025;-69
2021/07/22 09:15:54;;;;;;;26.45;16.65;;;24.60;99.90;;;;;;5049805;28;20075;-69
2021/07/22 09:18:25;;;;;;;22.25;14.00;;;24.80;99.90;;;;;;5058832;28;20021;-70
2021/07/22 09:20:52;;;;;;;22.25;14.68;;;24.80;99.90;;;;;;5048486;28;20025;-69
2021/07/22 09:23:23;;;;;;;22.02;13.38;;;24.70;99.90;;;;;;5048105;28;20111;-71
2021/07/22 09:25:50;;;;;;;21.33;12.52;;;24.50;99.90;;;;;;5049283;28;20029;-71
2021/07/22 09:28:27;;;;;;;23.27;12.13;;;24.60;99.90;;;;;;5048873;28;20010;-71
2021/07/22 09:31:07;;;;;;;18.38;12.70;;;24.90;99.90;;;;;;5044473;28;20602;-71
2021/07/22 09:33:44;;;;;;;19.30;12.73;;;25.20;99.90;;;;;;5052382;28;20492;-71
2021/07/22 09:36:18;;;;;;;20.65;12.82;;;25.30;99.90;;;;;;5051416;28;20025;-70
2021/07/22 09:38:44;;;;;;;23.10;13.95;;;25.10;99.90;;;;;;5054098;28;20026;-70
2021/07/22 09:41:30;;;;;;;18.13;12.48;;;25.00;99.90;;;;;;5053264;28;20114;-71
2021/07/22 09:43:55;;;;;;;19.95;11.82;;;25.30;99.90;;;;;;5054045;28;20037;-70
2021/07/22 09:46:40;;;;;;;19.92;13.43;;;25.30;99.90;;;;;;5044628;28;20496;-71
2021/07/22 09:49:10;;;;;;;15.95;11.45;;;25.40;99.90;;;;;;5051021;28;20366;-71
2021/07/22 09:51:37;;;;;;;16.00;11.43;;;25.40;99.90;;;;;;5042383;28;20029;-71
2021/07/22 09:54:11;;;;;;;18.27;11.25;;;25.30;99.90;;;;;;5048116;28;20044;-71
2021/07/22 09:56:37;;;;;;;15.05;9.68;;;25.60;99.90;;;;;;5044464;28;20021;-71
2021/07/22 09:59:04;;;;;;;15.80;9.27;;;25.70;99.90;;;;;;5054358;28;20020;-71
2021/07/22 10:01:33;;;;;;;16.52;10.80;;;26.00;99.90;;;;;;5041625;28;20029;-71
2021/07/22 10:04:03;;;;;;;15.38;11.25;;;26.20;99.90;;;;;;5049216;28;20476;-71
2021/07/22 10:06:30;;;;;;;13.70;10.82;;;26.40;99.90;;;;;;5047225;28;20041;-71
2021/07/22 10:08:55;;;;;;;18.95;12.00;;;26.60;99.90;;;;;;5052196;28;20021;-71
2021/07/22 10:11:21;;;;;;;21.67;11.55;;;26.40;99.90;;;;;;5053674;28;20023;-71
2021/07/22 10:13:49;;;;;;;17.30;11.35;;;26.20;99.90;;;;;;5051443;28;20104;-71
2021/07/22 10:16:18;;;;;;;18.67;11.02;;;25.90;99.90;;;;;;5056989;28;20040;-71
2021/07/22 10:18:46;;;;;;;17.15;10.10;;;25.70;99.90;;;;;;5054907;28;20013;-70
2021/07/22 10:21:12;;;;;;;15.02;9.65;;;25.90;99.90;;;;;;5052123;28;20025;-71
2021/07/22 10:23:42;;;;;;;16.00;10.52;;;26.00;99.90;;;;;;5050167;28;20112;-71
2021/07/22 10:26:09;;;;;;;13.43;9.77;;;26.20;99.90;;;;;;5057570;28;20153;-70
2021/07/22 10:28:34;;;;;;;16.90;10.82;;;26.40;99.90;;;;;;5043778;28;20088;-71
2021/07/22 10:31:06;;;;;;;16.33;10.60;;;26.70;99.90;;;;;;5053733;28;20071;-71
2021/07/22 10:33:34;;;;;;;15.73;9.82;;;26.90;99.90;;;;;;5051346;28;20036;-71
2021/07/22 10:36:00;;;;;;;16.17;9.70;;;27.30;99.90;;;;;;5052028;28;20107;-71
2021/07/22 10:38:45;;;;;;;21.67;10.30;;;27.30;99.90;;;;;;5048220;28;20029;-70
2021/07/22 10:41:41;;;;;;;16.83;9.65;;;27.40;99.90;;;;;;5047784;28;20036;-69
2021/07/22 10:44:18;;;;;;;12.73;9.05;;;27.50;99.90;;;;;;5043345;28;20646;-69
2021/07/22 10:46:55;;;;;;;13.45;8.88;;;27.50;99.90;;;;;;5049183;28;20625;-69
2021/07/22 10:49:37;;;;;;;17.65;10.00;;;27.40;99.90;;;;;;5055364;28;20051;-69
2021/07/22 10:52:03;;;;;;;18.35;10.13;;;27.50;99.90;;;;;;5054689;28;21507;-70
2021/07/22 10:54:41;;;;;;;13.10;9.40;;;27.60;99.90;;;;;;5056364;28;20570;-70
2021/07/22 10:57:28;;;;;;;12.23;7.82;;;27.80;99.90;;;;;;5052665;28;20140;-70
2021/07/22 10:59:57;;;;;;;13.50;8.68;;;27.80;99.90;;;;;;5049265;28;20060;-69
2021/07/22 11:02:45;;;;;;;13.35;9.60;;;27.90;99.90;;;;;;5043943;28;20016;-69
2021/07/22 11:05:40;;;;;;;11.45;8.40;;;28.10;99.90;;;;;;5048817;28;20025;-70
2021/07/22 11:08:25;;;;;;;12.23;8.40;;;28.10;99.90;;;;;;5043633;28;20041;-70
2021/07/22 11:10:51;;;;;;;11.75;8.57;;;28.20;99.10;;;;;;5059474;28;20032;-70
2021/07/22 11:13:38;;;;;;;13.40;8.18;;;28.30;98.60;;;;;;5055641;28;20025;-69
2021/07/22 11:16:09;;;;;;;9.15;7.13;;;28.30;99.90;;;;;;5052918;28;20031;-69
2021/07/22 11:18:44;;;;;;;11.48;7.18;;;28.30;99.90;;;;;;5046763;28;20017;-70
2021/07/22 11:21:11;;;;;;;10.82;7.22;;;28.40;99.50;;;;;;5049225;28;20029;-69
2021/07/22 11:23:39;;;;;;;10.80;7.80;;;28.40;99.80;;;;;;5047666;28;20128;-70
2021/07/22 11:26:04;;;;;;;11.30;7.05;;;28.10;99.50;;;;;;5044512;28;20499;-70
2021/07/22 11:28:30;;;;;;;12.00;7.63;;;28.30;99.90;;;;;;5044904;28;20033;-70
2021/07/22 11:31:03;;;;;;;9.88;6.78;;;28.40;99.80;;;;;;5045105;28;20060;-70
2021/07/22 11:33:32;;;;;;;8.55;6.47;;;28.10;99.90;;;;;;5055971;28;20021;-70
2021/07/22 11:36:00;;;;;;;7.57;6.78;;;27.90;99.90;;;;;;5053369;28;20017;-70
2021/07/22 11:38:26;;;;;;;13.40;7.45;;;28.10;99.90;;;;;;5053842;28;20104;-69
2021/07/22 11:40:53;;;;;;;9.45;7.65;;;27.90;99.40;;;;;;5045840;28;20190;-70
2021/07/22 11:43:36;;;;;;;10.13;7.80;;;27.50;99.90;;;;;;5042922;28;20017;-69
2021/07/22 11:46:02;;;;;;;;;;;27.20;99.90;;;;;;5047588;28;20033;-69
2021/07/22 11:48:27;;;;;;;8.00;6.57;;;27.30;99.90;;;;;;5046335;28;19928;-69
2021/07/22 11:51:08;;;;;;;9.02;6.57;;;27.60;99.90;;;;;;5044267;28;20028;-70
2021/07/22 11:53:34;;;;;;;8.40;7.03;;;27.80;99.90;;;;;;5048327;28;20511;-70
2021/07/22 11:56:11;;;;;;;10.13;7.72;;;27.70;99.90;;;;;;5050342;28;20030;-70
2021/07/22 11:58:38;;;;;;;11.32;6.90;;;27.70;99.70;;;;;;5050186;28;20092;-69
2021/07/22 12:01:06;;;;;;;12.73;7.10;;;27.60;99.90;;;;;;5049078;28;20068;-69
2021/07/22 12:03:31;;;;;;;7.88;7.10;;;27.90;99.30;;;;;;5048146;28;20108;-69
2021/07/22 12:05:57;;;;;;;9.43;6.88;;;28.10;99.90;;;;;;5043975;28;20103;-69
2021/07/22 12:08:23;;;;;;;9.90;7.45;;;28.10;98.50;;;;;;5048137;28;20397;-70
2021/07/22 12:11:00;;;;;;;9.98;6.65;;;28.30;99.80;;;;;;5050137;28;20053;-69
2021/07/22 12:13:27;;;;;;;8.85;6.47;;;28.20;99.80;;;;;;5030986;28;20040;-69
2021/07/22 12:15:53;;;;;;;8.40;6.22;;;27.90;99.60;;;;;;5041383;28;20052;-70
2021/07/22 12:18:23;;;;;;;9.63;6.50;;;28.00;98.00;;;;;;5048170;28;20028;-70
2021/07/22 12:20:49;;;;;;;7.90;6.38;;;28.20;97.50;;;;;;5043281;28;20021;-70
2021/07/22 12:23:34;;;;;;;8.15;7.35;;;28.40;99.00;;;;;;5042093;28;20025;-70
2021/07/22 12:26:04;;;;;;;7.45;6.13;;;28.40;98.50;;;;;;5042248;28;20176;-70
2021/07/22 12:28:31;;;;;;;8.23;6.70;;;28.60;98.20;;;;;;5038441;28;20017;-70
2021/07/22 12:31:22;;;;;;;11.15;6.10;;;28.60;99.00;;;;;;5048786;28;20103;-70
2021/07/22 12:34:02;;;;;;;7.18;6.40;;;28.70;97.80;;;;;;5046086;28;20040;-70